Norridgewock, ME (04957)

7:54 AM EST on December 18, 2014 (GMT -0500)
South-Western Somerset County | Change Station
CLOSE
Current Station
Personal Weather Station
Location: Mercer, ME
Elevation: 440 ft
Nearby Weather Stations
Active Advisory: Winter Weather Advisory

Elev 440 ft 44.63 °N, 69.89 °W | Updated 13 seconds ago

Snow
Snow
32.3 °F
Feels Like 32 °F
N
0.0
Wind Variable Wind from NW
Gusts 0.0 mph

Today
High -- | Low -- °F
--% Chance of Precip.
Yesterday
High -- | Low -- °F
Precip. -- in
7:11 AM 4:00 PM
Waning Crescent, 14% visible
Pressure 29.60 in
Visibility 2.5 miles
Clouds Scattered Clouds 600 ft
Overcast 1800 ft
Windchill 32 °F
Dew Point 32 °F
Humidity 98%
Rainfall 0.04 in
Snow Depth Not available.
UV 0 out of 12
Pollen .10 out of 12
Air Quality Not available.
Flu Activity Not available.
METAR KWVL 181235Z 32008KT 2 1/2SM SCT006 OVC018 01/M02 A2960 RMK AO1 P0001

More Conditions Fewer Conditions

Pressure 29.60 in
Visibility 2.5 miles
Clouds Scattered Clouds 600 ft
Overcast 1800 ft
Windchill 32 °F
Dew Point 32 °F
Humidity 98%
Rainfall 0.04 in
Snow Depth Not available.
UV 0 out of 12
Pollen .10 out of 12
Air Quality Not available.
Flu Activity Not available.
METAR KWVL 181235Z 32008KT 2 1/2SM SCT006 OVC018 01/M02 A2960 RMK AO1 P0001

More Conditions Fewer Conditions

10-Day Weather Forecast

Almanac

Astronomy

Dec. 18, 2014 Rise Set
Actual Time
Civil Twilight
Nautical Twilight
Astronomical Twilight
Moon
Length of Visible Light
Length of Day
Tomorrow will be .
, % of the Moon is Illuminated

Today's Extremes

State Highs State Lows

Community

WunderPhotos

Upload Photos

1,778,923 photos uploaded!

WunderBlogs® & News

Nearby

Air Quality

  Air Quality AQ Index Pollutant
Not available.

Snow Depth

Station Depth Elevation

Earthquake Activity

City Distance Mag. Time & Date
Minimum magnitude displayed is 2.5.

Coastal Water Temperatures

Place Temperature

Nearby Weather Stations